sensor_id;sensor_type;location;lat;lon;timestamp;P1;durP1;ratioP1;P2;durP2;ratioP2
5923;SDS011;2987;50.884;14.818;2023-03-14T00:02:11;8.73;;;6.17;;
5923;SDS011;2987;50.884;14.818;2023-03-14T00:04:37;11.47;;;5.90;;
5923;SDS011;2987;50.884;14.818;2023-03-14T00:07:04;8.87;;;5.87;;
5923;SDS011;2987;50.884;14.818;2023-03-14T00:09:30;9.37;;;6.03;;
5923;SDS011;2987;50.884;14.818;2023-03-14T00:11:56;8.23;;;5.70;;
5923;SDS011;2987;50.884;14.818;2023-03-14T00:14:23;8.23;;;5.73;;
5923;SDS011;2987;50.884;14.818;2023-03-14T00:16:49;8.13;;;5.83;;
5923;SDS011;2987;50.884;14.818;2023-03-14T00:19:15;10.20;;;5.80;;
5923;SDS011;2987;50.884;14.818;2023-03-14T00:21:41;7.53;;;5.50;;
5923;SDS011;2987;50.884;14.818;2023-03-14T00:24:08;7.60;;;5.40;;
5923;SDS011;2987;50.884;14.818;2023-03-14T00:26:34;8.33;;;5.40;;
5923;SDS011;2987;50.884;14.818;2023-03-14T00:29:00;7.50;;;5.43;;
5923;SDS011;2987;50.884;14.818;2023-03-14T00:31:27;10.20;;;6.17;;
5923;SDS011;2987;50.884;14.818;2023-03-14T00:33:53;10.17;;;6.30;;
5923;SDS011;2987;50.884;14.818;2023-03-14T00:36:19;8.33;;;5.53;;
5923;SDS011;2987;50.884;14.818;2023-03-14T00:38:47;12.53;;;6.57;;
5923;SDS011;2987;50.884;14.818;2023-03-14T00:41:17;7.27;;;5.73;;
5923;SDS011;2987;50.884;14.818;2023-03-14T00:43:46;9.07;;;5.43;;
5923;SDS011;2987;50.884;14.818;2023-03-14T00:46:13;10.80;;;5.33;;
5923;SDS011;2987;50.884;14.818;2023-03-14T00:48:39;11.23;;;5.63;;
5923;SDS011;2987;50.884;14.818;2023-03-14T00:51:06;7.43;;;5.23;;
5923;SDS011;2987;50.884;14.818;2023-03-14T00:53:35;9.17;;;5.60;;
5923;SDS011;2987;50.884;14.818;2023-03-14T00:56:04;10.83;;;5.50;;
5923;SDS011;2987;50.884;14.818;2023-03-14T00:58:32;11.13;;;5.40;;
5923;SDS011;2987;50.884;14.818;2023-03-14T01:00:58;7.43;;;5.23;;
5923;SDS011;2987;50.884;14.818;2023-03-14T01:03:24;9.87;;;5.73;;
5923;SDS011;2987;50.884;14.818;2023-03-14T01:05:50;10.97;;;5.40;;
5923;SDS011;2987;50.884;14.818;2023-03-14T01:08:16;9.80;;;5.50;;
5923;SDS011;2987;50.884;14.818;2023-03-14T01:10:42;8.43;;;5.63;;
5923;SDS011;2987;50.884;14.818;2023-03-14T01:13:09;6.73;;;5.03;;
5923;SDS011;2987;50.884;14.818;2023-03-14T01:15:36;7.20;;;5.43;;
5923;SDS011;2987;50.884;14.818;2023-03-14T01:18:03;7.53;;;5.03;;
5923;SDS011;2987;50.884;14.818;2023-03-14T01:20:29;7.73;;;5.90;;
5923;SDS011;2987;50.884;14.818;2023-03-14T01:22:59;8.47;;;6.27;;
5923;SDS011;2987;50.884;14.818;2023-03-14T01:25:25;5.93;;;5.20;;
5923;SDS011;2987;50.884;14.818;2023-03-14T01:27:51;7.97;;;5.70;;
5923;SDS011;2987;50.884;14.818;2023-03-14T01:30:18;8.93;;;5.37;;
5923;SDS011;2987;50.884;14.818;2023-03-14T01:32:44;6.87;;;5.90;;
5923;SDS011;2987;50.884;14.818;2023-03-14T01:35:10;7.97;;;5.23;;
5923;SDS011;2987;50.884;14.818;2023-03-14T01:37:37;7.00;;;5.17;;
5923;SDS011;2987;50.884;14.818;2023-03-14T01:40:05;8.70;;;4.80;;
5923;SDS011;2987;50.884;14.818;2023-03-14T01:42:32;7.93;;;5.50;;
5923;SDS011;2987;50.884;14.818;2023-03-14T01:45:00;5.73;;;5.17;;
5923;SDS011;2987;50.884;14.818;2023-03-14T01:47:27;5.53;;;4.70;;
5923;SDS011;2987;50.884;14.818;2023-03-14T01:49:58;8.07;;;4.73;;
5923;SDS011;2987;50.884;14.818;2023-03-14T01:52:32;6.50;;;5.33;;
5923;SDS011;2987;50.884;14.818;2023-03-14T01:55:09;7.47;;;4.70;;
5923;SDS011;2987;50.884;14.818;2023-03-14T01:57:43;7.40;;;5.20;;
5923;SDS011;2987;50.884;14.818;2023-03-14T02:00:15;10.83;;;5.13;;
5923;SDS011;2987;50.884;14.818;2023-03-14T02:02:48;7.97;;;5.77;;
5923;SDS011;2987;50.884;14.818;2023-03-14T02:05:20;7.10;;;5.50;;
5923;SDS011;2987;50.884;14.818;2023-03-14T02:07:59;9.00;;;6.00;;
5923;SDS011;2987;50.884;14.818;2023-03-14T02:10:32;8.73;;;6.03;;
5923;SDS011;2987;50.884;14.818;2023-03-14T02:13:05;7.20;;;6.13;;
5923;SDS011;2987;50.884;14.818;2023-03-14T02:15:44;7.77;;;5.67;;
5923;SDS011;2987;50.884;14.818;2023-03-14T02:18:19;9.93;;;5.53;;
5923;SDS011;2987;50.884;14.818;2023-03-14T02:26:29;7.83;;;5.60;;
5923;SDS011;2987;50.884;14.818;2023-03-14T02:28:59;9.63;;;5.90;;
5923;SDS011;2987;50.884;14.818;2023-03-14T02:33:52;8.70;;;6.20;;
5923;SDS011;2987;50.884;14.818;2023-03-14T02:36:18;8.17;;;5.40;;
5923;SDS011;2987;50.884;14.818;2023-03-14T02:38:50;9.37;;;6.10;;
5923;SDS011;2987;50.884;14.818;2023-03-14T02:41:26;9.23;;;5.90;;
5923;SDS011;2987;50.884;14.818;2023-03-14T02:44:00;9.43;;;5.90;;
5923;SDS011;2987;50.884;14.818;2023-03-14T02:46:27;7.60;;;5.90;;
5923;SDS011;2987;50.884;14.818;2023-03-14T02:48:55;10.47;;;6.93;;
5923;SDS011;2987;50.884;14.818;2023-03-14T02:51:30;8.40;;;6.53;;
5923;SDS011;2987;50.884;14.818;2023-03-14T02:53:58;9.00;;;6.87;;
5923;SDS011;2987;50.884;14.818;2023-03-14T02:56:24;11.23;;;7.23;;
5923;SDS011;2987;50.884;14.818;2023-03-14T02:58:50;8.60;;;7.10;;
5923;SDS011;2987;50.884;14.818;2023-03-14T03:01:25;9.73;;;7.93;;
5923;SDS011;2987;50.884;14.818;2023-03-14T03:03:52;11.07;;;7.00;;
5923;SDS011;2987;50.884;14.818;2023-03-14T03:06:19;11.17;;;7.50;;
5923;SDS011;2987;50.884;14.818;2023-03-14T03:08:45;7.67;;;6.73;;
5923;SDS011;2987;50.884;14.818;2023-03-14T03:11:11;9.43;;;7.23;;
5923;SDS011;2987;50.884;14.818;2023-03-14T03:13:37;8.90;;;7.00;;
5923;SDS011;2987;50.884;14.818;2023-03-14T03:16:05;9.40;;;6.83;;
5923;SDS011;2987;50.884;14.818;2023-03-14T03:18:33;7.33;;;6.63;;
5923;SDS011;2987;50.884;14.818;2023-03-14T03:21:00;8.10;;;7.30;;
5923;SDS011;2987;50.884;14.818;2023-03-14T03:23:28;8.87;;;6.87;;
5923;SDS011;2987;50.884;14.818;2023-03-14T03:25:57;8.43;;;6.40;;
5923;SDS011;2987;50.884;14.818;2023-03-14T03:28:23;8.43;;;7.30;;
5923;SDS011;2987;50.884;14.818;2023-03-14T03:30:51;10.23;;;6.63;;
5923;SDS011;2987;50.884;14.818;2023-03-14T03:33:17;8.47;;;7.20;;
5923;SDS011;2987;50.884;14.818;2023-03-14T03:35:45;8.77;;;6.90;;
5923;SDS011;2987;50.884;14.818;2023-03-14T03:38:17;8.80;;;6.80;;
5923;SDS011;2987;50.884;14.818;2023-03-14T03:40:48;8.00;;;7.20;;
5923;SDS011;2987;50.884;14.818;2023-03-14T03:43:15;9.73;;;6.77;;
5923;SDS011;2987;50.884;14.818;2023-03-14T03:45:43;10.43;;;7.13;;
5923;SDS011;2987;50.884;14.818;2023-03-14T03:48:09;9.60;;;6.47;;
5923;SDS011;2987;50.884;14.818;2023-03-14T03:50:36;8.07;;;5.90;;
5923;SDS011;2987;50.884;14.818;2023-03-14T03:53:02;11.10;;;6.63;;
5923;SDS011;2987;50.884;14.818;2023-03-14T03:55:29;10.87;;;6.63;;
5923;SDS011;2987;50.884;14.818;2023-03-14T03:57:55;7.67;;;5.87;;
5923;SDS011;2987;50.884;14.818;2023-03-14T04:00:21;8.63;;;5.77;;
5923;SDS011;2987;50.884;14.818;2023-03-14T04:02:47;10.47;;;6.60;;
5923;SDS011;2987;50.884;14.818;2023-03-14T04:05:16;8.10;;;5.80;;
5923;SDS011;2987;50.884;14.818;2023-03-14T04:07:50;6.80;;;5.30;;
5923;SDS011;2987;50.884;14.818;2023-03-14T04:10:21;8.43;;;5.40;;
5923;SDS011;2987;50.884;14.818;2023-03-14T04:13:08;8.80;;;6.13;;
5923;SDS011;2987;50.884;14.818;2023-03-14T04:15:34;9.90;;;6.17;;
5923;SDS011;2987;50.884;14.818;2023-03-14T04:18:00;8.83;;;6.17;;
5923;SDS011;2987;50.884;14.818;2023-03-14T04:20:26;7.73;;;5.80;;
5923;SDS011;2987;50.884;14.818;2023-03-14T04:22:53;8.60;;;6.93;;
5923;SDS011;2987;50.884;14.818;2023-03-14T04:25:19;10.07;;;6.47;;
5923;SDS011;2987;50.884;14.818;2023-03-14T04:27:50;10.70;;;6.30;;
5923;SDS011;2987;50.884;14.818;2023-03-14T04:30:22;7.97;;;6.70;;
5923;SDS011;2987;50.884;14.818;2023-03-14T04:32:52;11.77;;;6.83;;
5923;SDS011;2987;50.884;14.818;2023-03-14T04:35:21;10.97;;;7.20;;
5923;SDS011;2987;50.884;14.818;2023-03-14T04:37:51;10.60;;;7.40;;
5923;SDS011;2987;50.884;14.818;2023-03-14T04:40:19;8.90;;;6.77;;
5923;SDS011;2987;50.884;14.818;2023-03-14T04:42:47;9.73;;;7.13;;
5923;SDS011;2987;50.884;14.818;2023-03-14T04:45:15;9.80;;;7.30;;
5923;SDS011;2987;50.884;14.818;2023-03-14T04:47:43;10.43;;;6.70;;
5923;SDS011;2987;50.884;14.818;2023-03-14T04:50:13;15.17;;;7.40;;
5923;SDS011;2987;50.884;14.818;2023-03-14T04:52:40;10.60;;;6.67;;
5923;SDS011;2987;50.884;14.818;2023-03-14T04:55:07;8.90;;;6.43;;
5923;SDS011;2987;50.884;14.818;2023-03-14T04:57:33;12.70;;;6.43;;
5923;SDS011;2987;50.884;14.818;2023-03-14T05:00:00;7.40;;;6.40;;
5923;SDS011;2987;50.884;14.818;2023-03-14T05:02:46;11.97;;;7.13;;
5923;SDS011;2987;50.884;14.818;2023-03-14T05:05:21;8.97;;;6.50;;
5923;SDS011;2987;50.884;14.818;2023-03-14T05:08:08;9.57;;;7.23;;
5923;SDS011;2987;50.884;14.818;2023-03-14T05:10:54;10.23;;;6.93;;
5923;SDS011;2987;50.884;14.818;2023-03-14T05:13:38;9.87;;;6.83;;
5923;SDS011;2987;50.884;14.818;2023-03-14T05:16:25;13.83;;;7.80;;
5923;SDS011;2987;50.884;14.818;2023-03-14T05:19:00;13.83;;;7.90;;
5923;SDS011;2987;50.884;14.818;2023-03-14T05:21:38;10.17;;;7.50;;
5923;SDS011;2987;50.884;14.818;2023-03-14T05:24:21;10.23;;;7.10;;
5923;SDS011;2987;50.884;14.818;2023-03-14T05:27:07;8.83;;;7.27;;
5923;SDS011;2987;50.884;14.818;2023-03-14T05:29:42;10.47;;;7.43;;
5923;SDS011;2987;50.884;14.818;2023-03-14T05:32:22;9.93;;;7.27;;
5923;SDS011;2987;50.884;14.818;2023-03-14T05:35:09;14.93;;;7.67;;
5923;SDS011;2987;50.884;14.818;2023-03-14T05:37:38;9.67;;;7.40;;
5923;SDS011;2987;50.884;14.818;2023-03-14T05:40:23;9.90;;;7.13;;
5923;SDS011;2987;50.884;14.818;2023-03-14T05:43:07;9.53;;;7.33;;
5923;SDS011;2987;50.884;14.818;2023-03-14T05:45:52;10.07;;;7.07;;
5923;SDS011;2987;50.884;14.818;2023-03-14T05:48:37;9.93;;;7.20;;
5923;SDS011;2987;50.884;14.818;2023-03-14T05:51:09;8.70;;;6.63;;
5923;SDS011;2987;50.884;14.818;2023-03-14T05:53:35;10.93;;;7.20;;
5923;SDS011;2987;50.884;14.818;2023-03-14T05:56:21;11.30;;;6.83;;
5923;SDS011;2987;50.884;14.818;2023-03-14T05:58:53;10.83;;;6.63;;
5923;SDS011;2987;50.884;14.818;2023-03-14T06:01:37;9.70;;;6.50;;
5923;SDS011;2987;50.884;14.818;2023-03-14T06:04:04;10.07;;;6.20;;
5923;SDS011;2987;50.884;14.818;2023-03-14T06:06:30;10.13;;;6.33;;
5923;SDS011;2987;50.884;14.818;2023-03-14T06:08:56;9.93;;;6.87;;
5923;SDS011;2987;50.884;14.818;2023-03-14T06:11:22;12.60;;;7.03;;
5923;SDS011;2987;50.884;14.818;2023-03-14T06:13:48;9.90;;;7.50;;
5923;SDS011;2987;50.884;14.818;2023-03-14T06:16:14;11.10;;;8.13;;
5923;SDS011;2987;50.884;14.818;2023-03-14T06:18:42;15.20;;;8.17;;
5923;SDS011;2987;50.884;14.818;2023-03-14T06:21:09;14.17;;;8.30;;
5923;SDS011;2987;50.884;14.818;2023-03-14T06:23:37;12.13;;;7.90;;
5923;SDS011;2987;50.884;14.818;2023-03-14T06:26:05;8.80;;;6.97;;
5923;SDS011;2987;50.884;14.818;2023-03-14T06:28:31;9.80;;;8.13;;
5923;SDS011;2987;50.884;14.818;2023-03-14T06:31:00;7.30;;;6.23;;
5923;SDS011;2987;50.884;14.818;2023-03-14T06:33:31;10.50;;;5.87;;
5923;SDS011;2987;50.884;14.818;2023-03-14T06:35:59;7.97;;;5.83;;
5923;SDS011;2987;50.884;14.818;2023-03-14T06:38:25;9.37;;;5.50;;
5923;SDS011;2987;50.884;14.818;2023-03-14T06:40:54;8.47;;;5.53;;
5923;SDS011;2987;50.884;14.818;2023-03-14T06:43:31;9.73;;;6.17;;
5923;SDS011;2987;50.884;14.818;2023-03-14T06:45:58;7.47;;;6.00;;
5923;SDS011;2987;50.884;14.818;2023-03-14T06:48:24;6.80;;;6.07;;
5923;SDS011;2987;50.884;14.818;2023-03-14T06:50:53;7.43;;;6.00;;
5923;SDS011;2987;50.884;14.818;2023-03-14T06:53:21;10.10;;;6.93;;
5923;SDS011;2987;50.884;14.818;2023-03-14T06:55:47;9.93;;;7.17;;
5923;SDS011;2987;50.884;14.818;2023-03-14T06:58:16;9.17;;;6.93;;
5923;SDS011;2987;50.884;14.818;2023-03-14T07:00:44;8.77;;;6.07;;
5923;SDS011;2987;50.884;14.818;2023-03-14T07:03:14;10.13;;;6.67;;
5923;SDS011;2987;50.884;14.818;2023-03-14T07:05:44;6.83;;;6.13;;
5923;SDS011;2987;50.884;14.818;2023-03-14T07:08:10;8.00;;;5.83;;
5923;SDS011;2987;50.884;14.818;2023-03-14T07:10:36;8.00;;;5.23;;
5923;SDS011;2987;50.884;14.818;2023-03-14T07:13:02;8.60;;;6.00;;
5923;SDS011;2987;50.884;14.818;2023-03-14T07:15:33;9.93;;;5.77;;
5923;SDS011;2987;50.884;14.818;2023-03-14T07:18:04;9.80;;;6.20;;
5923;SDS011;2987;50.884;14.818;2023-03-14T07:20:30;7.43;;;5.90;;
5923;SDS011;2987;50.884;14.818;2023-03-14T07:22:59;7.30;;;5.43;;
5923;SDS011;2987;50.884;14.818;2023-03-14T07:25:35;10.43;;;5.80;;
5923;SDS011;2987;50.884;14.818;2023-03-14T07:28:02;8.33;;;5.67;;
5923;SDS011;2987;50.884;14.818;2023-03-14T07:30:29;10.70;;;5.50;;
5923;SDS011;2987;50.884;14.818;2023-03-14T07:32:58;6.83;;;5.33;;
5923;SDS011;2987;50.884;14.818;2023-03-14T07:35:24;7.80;;;5.77;;
5923;SDS011;2987;50.884;14.818;2023-03-14T07:37:51;7.60;;;5.93;;
5923;SDS011;2987;50.884;14.818;2023-03-14T07:40:24;6.07;;;5.47;;
5923;SDS011;2987;50.884;14.818;2023-03-14T07:42:50;7.30;;;5.87;;
5923;SDS011;2987;50.884;14.818;2023-03-14T07:45:27;8.13;;;6.00;;
5923;SDS011;2987;50.884;14.818;2023-03-14T07:47:53;6.70;;;5.57;;
5923;SDS011;2987;50.884;14.818;2023-03-14T07:50:23;7.00;;;4.97;;
5923;SDS011;2987;50.884;14.818;2023-03-14T07:52:50;5.57;;;4.77;;
5923;SDS011;2987;50.884;14.818;2023-03-14T07:55:16;5.17;;;4.30;;
5923;SDS011;2987;50.884;14.818;2023-03-14T07:57:43;5.77;;;5.17;;
5923;SDS011;2987;50.884;14.818;2023-03-14T08:00:09;7.33;;;5.00;;
5923;SDS011;2987;50.884;14.818;2023-03-14T08:02:40;6.90;;;4.37;;
5923;SDS011;2987;50.884;14.818;2023-03-14T08:05:06;6.83;;;4.37;;
5923;SDS011;2987;50.884;14.818;2023-03-14T08:07:33;5.03;;;4.20;;
5923;SDS011;2987;50.884;14.818;2023-03-14T08:09:59;4.53;;;4.10;;
5923;SDS011;2987;50.884;14.818;2023-03-14T08:12:25;3.83;;;3.23;;
5923;SDS011;2987;50.884;14.818;2023-03-14T08:14:51;6.73;;;3.83;;
5923;SDS011;2987;50.884;14.818;2023-03-14T08:17:17;5.33;;;3.50;;
5923;SDS011;2987;50.884;14.818;2023-03-14T08:19:43;6.07;;;3.10;;
5923;SDS011;2987;50.884;14.818;2023-03-14T08:22:10;6.03;;;3.03;;
5923;SDS011;2987;50.884;14.818;2023-03-14T08:24:36;3.77;;;3.00;;
5923;SDS011;2987;50.884;14.818;2023-03-14T08:27:02;5.27;;;3.10;;
5923;SDS011;2987;50.884;14.818;2023-03-14T08:29:28;3.37;;;3.00;;
5923;SDS011;2987;50.884;14.818;2023-03-14T08:31:54;5.83;;;2.77;;
5923;SDS011;2987;50.884;14.818;2023-03-14T08:34:20;4.80;;;2.87;;
5923;SDS011;2987;50.884;14.818;2023-03-14T08:36:46;2.87;;;2.50;;
5923;SDS011;2987;50.884;14.818;2023-03-14T08:39:12;3.73;;;2.50;;
5923;SDS011;2987;50.884;14.818;2023-03-14T08:41:38;3.27;;;2.53;;
5923;SDS011;2987;50.884;14.818;2023-03-14T08:44:08;3.37;;;2.50;;
5923;SDS011;2987;50.884;14.818;2023-03-14T08:46:35;4.43;;;2.43;;
5923;SDS011;2987;50.884;14.818;2023-03-14T08:49:01;4.30;;;2.30;;
5923;SDS011;2987;50.884;14.818;2023-03-14T08:51:27;2.67;;;2.30;;
5923;SDS011;2987;50.884;14.818;2023-03-14T08:53:54;5.10;;;2.10;;
5923;SDS011;2987;50.884;14.818;2023-03-14T08:56:20;5.23;;;2.27;;
5923;SDS011;2987;50.884;14.818;2023-03-14T08:58:46;3.57;;;2.20;;
5923;SDS011;2987;50.884;14.818;2023-03-14T09:01:12;4.03;;;2.20;;
5923;SDS011;2987;50.884;14.818;2023-03-14T09:03:38;5.43;;;2.50;;
5923;SDS011;2987;50.884;14.818;2023-03-14T09:06:05;4.30;;;2.33;;
5923;SDS011;2987;50.884;14.818;2023-03-14T09:08:34;2.33;;;2.13;;
5923;SDS011;2987;50.884;14.818;2023-03-14T09:11:00;3.37;;;1.90;;
5923;SDS011;2987;50.884;14.818;2023-03-14T09:13:27;2.63;;;1.90;;
5923;SDS011;2987;50.884;14.818;2023-03-14T09:15:54;3.30;;;2.10;;
5923;SDS011;2987;50.884;14.818;2023-03-14T09:18:21;6.57;;;2.53;;
5923;SDS011;2987;50.884;14.818;2023-03-14T09:20:48;4.63;;;2.20;;
5923;SDS011;2987;50.884;14.818;2023-03-14T09:26:07;5.90;;;2.50;;
5923;SDS011;2987;50.884;14.818;2023-03-14T09:28:33;3.43;;;2.43;;
5923;SDS011;2987;50.884;14.818;2023-03-14T09:31:07;2.17;;;1.80;;
5923;SDS011;2987;50.884;14.818;2023-03-14T09:33:35;3.47;;;2.17;;
5923;SDS011;2987;50.884;14.818;2023-03-14T09:36:02;10.73;;;2.10;;
5923;SDS011;2987;50.884;14.818;2023-03-14T09:38:28;2.23;;;2.00;;
5923;SDS011;2987;50.884;14.818;2023-03-14T09:40:55;2.43;;;1.83;;
5923;SDS011;2987;50.884;14.818;2023-03-14T09:43:24;2.13;;;1.70;;
5923;SDS011;2987;50.884;14.818;2023-03-14T09:45:53;2.37;;;1.70;;
5923;SDS011;2987;50.884;14.818;2023-03-14T09:48:21;2.53;;;1.70;;
5923;SDS011;2987;50.884;14.818;2023-03-14T09:50:53;2.97;;;1.47;;
5923;SDS011;2987;50.884;14.818;2023-03-14T09:53:24;2.60;;;1.20;;
5923;SDS011;2987;50.884;14.818;2023-03-14T09:55:52;3.07;;;1.50;;
5923;SDS011;2987;50.884;14.818;2023-03-14T09:58:21;3.20;;;1.43;;
5923;SDS011;2987;50.884;14.818;2023-03-14T10:00:49;1.60;;;1.20;;
5923;SDS011;2987;50.884;14.818;2023-03-14T10:03:35;3.10;;;1.33;;
5923;SDS011;2987;50.884;14.818;2023-03-14T10:06:01;3.77;;;1.30;;
5923;SDS011;2987;50.884;14.818;2023-03-14T10:08:29;2.27;;;1.47;;
5923;SDS011;2987;50.884;14.818;2023-03-14T10:10:56;2.87;;;1.37;;
5923;SDS011;2987;50.884;14.818;2023-03-14T10:13:23;1.83;;;1.20;;
5923;SDS011;2987;50.884;14.818;2023-03-14T10:15:54;2.10;;;1.10;;
5923;SDS011;2987;50.884;14.818;2023-03-14T10:18:27;1.30;;;1.20;;
5923;SDS011;2987;50.884;14.818;2023-03-14T10:26:12;1.87;;;1.27;;
5923;SDS011;2987;50.884;14.818;2023-03-14T10:28:49;1.30;;;1.17;;
5923;SDS011;2987;50.884;14.818;2023-03-14T10:33:57;3.60;;;1.40;;
5923;SDS011;2987;50.884;14.818;2023-03-14T10:36:27;2.93;;;1.87;;
5923;SDS011;2987;50.884;14.818;2023-03-14T10:41:50;1.53;;;1.00;;
5923;SDS011;2987;50.884;14.818;2023-03-14T10:44:20;3.20;;;1.23;;
5923;SDS011;2987;50.884;14.818;2023-03-14T10:51:54;2.83;;;1.23;;
5923;SDS011;2987;50.884;14.818;2023-03-14T10:54:21;1.77;;;1.10;;
5923;SDS011;2987;50.884;14.818;2023-03-14T10:56:57;1.53;;;1.20;;
5923;SDS011;2987;50.884;14.818;2023-03-14T10:59:27;1.37;;;1.20;;
5923;SDS011;2987;50.884;14.818;2023-03-14T11:02:06;3.10;;;1.43;;
5923;SDS011;2987;50.884;14.818;2023-03-14T11:08:01;1.23;;;1.00;;
5923;SDS011;2987;50.884;14.818;2023-03-14T11:10:35;1.47;;;1.37;;
5923;SDS011;2987;50.884;14.818;2023-03-14T11:18:33;1.80;;;1.23;;
5923;SDS011;2987;50.884;14.818;2023-03-14T11:23:52;1.13;;;1.00;;
5923;SDS011;2987;50.884;14.818;2023-03-14T11:37:22;3.40;;;1.30;;
5923;SDS011;2987;50.884;14.818;2023-03-14T11:45:10;1.90;;;1.20;;
5923;SDS011;2987;50.884;14.818;2023-03-14T11:47:48;3.80;;;1.30;;
5923;SDS011;2987;50.884;14.818;2023-03-14T11:53:16;3.77;;;1.20;;
5923;SDS011;2987;50.884;14.818;2023-03-14T11:55:48;2.17;;;1.33;;
5923;SDS011;2987;50.884;14.818;2023-03-14T11:58:20;2.83;;;1.27;;
5923;SDS011;2987;50.884;14.818;2023-03-14T12:00:52;1.37;;;1.27;;
5923;SDS011;2987;50.884;14.818;2023-03-14T12:03:24;1.47;;;1.37;;
5923;SDS011;2987;50.884;14.818;2023-03-14T12:06:08;1.77;;;1.47;;
5923;SDS011;2987;50.884;14.818;2023-03-14T12:08:46;1.97;;;1.37;;
5923;SDS011;2987;50.884;14.818;2023-03-14T12:11:18;3.33;;;1.20;;
5923;SDS011;2987;50.884;14.818;2023-03-14T12:13:46;2.33;;;1.40;;
5923;SDS011;2987;50.884;14.818;2023-03-14T12:16:26;2.43;;;1.30;;
5923;SDS011;2987;50.884;14.818;2023-03-14T12:19:13;4.07;;;1.40;;
5923;SDS011;2987;50.884;14.818;2023-03-14T12:21:51;1.43;;;1.33;;
5923;SDS011;2987;50.884;14.818;2023-03-14T12:24:26;3.40;;;1.20;;
5923;SDS011;2987;50.884;14.818;2023-03-14T12:26:56;3.07;;;1.37;;
5923;SDS011;2987;50.884;14.818;2023-03-14T12:29:24;2.03;;;1.40;;
5923;SDS011;2987;50.884;14.818;2023-03-14T12:32:08;2.50;;;1.47;;
5923;SDS011;2987;50.884;14.818;2023-03-14T12:34:48;3.57;;;1.33;;
5923;SDS011;2987;50.884;14.818;2023-03-14T12:37:18;1.73;;;1.30;;
5923;SDS011;2987;50.884;14.818;2023-03-14T12:39:58;1.90;;;1.00;;
5923;SDS011;2987;50.884;14.818;2023-03-14T12:42:55;2.27;;;1.30;;
5923;SDS011;2987;50.884;14.818;2023-03-14T12:45:25;1.43;;;1.20;;
5923;SDS011;2987;50.884;14.818;2023-03-14T12:47:56;1.30;;;1.20;;
5923;SDS011;2987;50.884;14.818;2023-03-14T12:53:18;1.93;;;1.23;;
5923;SDS011;2987;50.884;14.818;2023-03-14T13:01:18;2.67;;;1.20;;
5923;SDS011;2987;50.884;14.818;2023-03-14T13:09:35;2.77;;;1.40;;
5923;SDS011;2987;50.884;14.818;2023-03-14T13:14:44;2.53;;;1.30;;
5923;SDS011;2987;50.884;14.818;2023-03-14T13:17:15;1.53;;;1.13;;
5923;SDS011;2987;50.884;14.818;2023-03-14T13:22:20;3.43;;;1.33;;
5923;SDS011;2987;50.884;14.818;2023-03-14T13:24:58;3.03;;;1.60;;
5923;SDS011;2987;50.884;14.818;2023-03-14T13:27:30;1.83;;;1.30;;
5923;SDS011;2987;50.884;14.818;2023-03-14T13:29:58;1.50;;;1.13;;
5923;SDS011;2987;50.884;14.818;2023-03-14T13:32:30;2.77;;;1.37;;
5923;SDS011;2987;50.884;14.818;2023-03-14T13:34:57;2.80;;;1.20;;
5923;SDS011;2987;50.884;14.818;2023-03-14T13:37:25;3.17;;;1.43;;
5923;SDS011;2987;50.884;14.818;2023-03-14T13:39:53;3.70;;;1.60;;
5923;SDS011;2987;50.884;14.818;2023-03-14T13:42:21;2.77;;;1.30;;
5923;SDS011;2987;50.884;14.818;2023-03-14T13:44:52;4.23;;;1.67;;
5923;SDS011;2987;50.884;14.818;2023-03-14T13:47:20;1.83;;;1.37;;
5923;SDS011;2987;50.884;14.818;2023-03-14T13:49:49;1.97;;;1.30;;
5923;SDS011;2987;50.884;14.818;2023-03-14T13:52:35;1.70;;;1.40;;
5923;SDS011;2987;50.884;14.818;2023-03-14T13:55:03;2.20;;;1.30;;
5923;SDS011;2987;50.884;14.818;2023-03-14T13:57:48;4.47;;;1.47;;
5923;SDS011;2987;50.884;14.818;2023-03-14T14:00:22;8.13;;;2.03;;
5923;SDS011;2987;50.884;14.818;2023-03-14T14:02:54;1.20;;;1.10;;
5923;SDS011;2987;50.884;14.818;2023-03-14T14:05:22;2.73;;;1.27;;
5923;SDS011;2987;50.884;14.818;2023-03-14T14:07:51;1.60;;;1.20;;
5923;SDS011;2987;50.884;14.818;2023-03-14T14:10:18;3.80;;;1.53;;
5923;SDS011;2987;50.884;14.818;2023-03-14T14:13:01;2.83;;;1.53;;
5923;SDS011;2987;50.884;14.818;2023-03-14T14:15:30;2.23;;;1.50;;
5923;SDS011;2987;50.884;14.818;2023-03-14T14:18:01;3.33;;;1.43;;
5923;SDS011;2987;50.884;14.818;2023-03-14T14:20:33;1.53;;;1.20;;
5923;SDS011;2987;50.884;14.818;2023-03-14T14:23:04;1.97;;;1.40;;
5923;SDS011;2987;50.884;14.818;2023-03-14T14:25:35;2.43;;;1.20;;
5923;SDS011;2987;50.884;14.818;2023-03-14T14:28:21;2.50;;;1.50;;
5923;SDS011;2987;50.884;14.818;2023-03-14T14:33:53;9.50;;;1.90;;
5923;SDS011;2987;50.884;14.818;2023-03-14T14:36:24;3.83;;;1.30;;
5923;SDS011;2987;50.884;14.818;2023-03-14T14:38:57;1.50;;;1.27;;
5923;SDS011;2987;50.884;14.818;2023-03-14T14:41:28;2.13;;;1.30;;
5923;SDS011;2987;50.884;14.818;2023-03-14T14:43:58;1.67;;;1.30;;
5923;SDS011;2987;50.884;14.818;2023-03-14T14:46:26;2.03;;;1.27;;
5923;SDS011;2987;50.884;14.818;2023-03-14T14:48:56;2.33;;;1.10;;
5923;SDS011;2987;50.884;14.818;2023-03-14T14:51:31;2.00;;;1.20;;
5923;SDS011;2987;50.884;14.818;2023-03-14T14:54:03;1.80;;;1.50;;
5923;SDS011;2987;50.884;14.818;2023-03-14T14:56:35;1.77;;;1.23;;
5923;SDS011;2987;50.884;14.818;2023-03-14T14:59:03;3.57;;;1.67;;
5923;SDS011;2987;50.884;14.818;2023-03-14T15:01:33;3.43;;;1.27;;
5923;SDS011;2987;50.884;14.818;2023-03-14T15:04:03;1.57;;;1.10;;
5923;SDS011;2987;50.884;14.818;2023-03-14T15:06:37;3.50;;;1.30;;
5923;SDS011;2987;50.884;14.818;2023-03-14T15:09:04;1.57;;;1.43;;
5923;SDS011;2987;50.884;14.818;2023-03-14T15:11:31;1.93;;;1.40;;
5923;SDS011;2987;50.884;14.818;2023-03-14T15:13:57;3.03;;;1.40;;
5923;SDS011;2987;50.884;14.818;2023-03-14T15:16:25;1.97;;;1.60;;
5923;SDS011;2987;50.884;14.818;2023-03-14T15:18:56;2.40;;;1.47;;
5923;SDS011;2987;50.884;14.818;2023-03-14T15:21:25;2.70;;;1.30;;
5923;SDS011;2987;50.884;14.818;2023-03-14T15:23:53;4.13;;;2.07;;
5923;SDS011;2987;50.884;14.818;2023-03-14T15:26:21;3.53;;;1.53;;
5923;SDS011;2987;50.884;14.818;2023-03-14T15:28:50;4.90;;;1.63;;
5923;SDS011;2987;50.884;14.818;2023-03-14T15:31:17;3.27;;;1.40;;
5923;SDS011;2987;50.884;14.818;2023-03-14T15:33:45;3.17;;;2.03;;
5923;SDS011;2987;50.884;14.818;2023-03-14T15:36:20;2.60;;;1.53;;
5923;SDS011;2987;50.884;14.818;2023-03-14T15:38:49;2.70;;;1.70;;
5923;SDS011;2987;50.884;14.818;2023-03-14T15:41:17;2.93;;;1.90;;
5923;SDS011;2987;50.884;14.818;2023-03-14T15:43:44;4.30;;;2.17;;
5923;SDS011;2987;50.884;14.818;2023-03-14T15:46:11;3.53;;;1.57;;
5923;SDS011;2987;50.884;14.818;2023-03-14T15:48:38;1.40;;;1.30;;
5923;SDS011;2987;50.884;14.818;2023-03-14T15:51:05;3.20;;;1.60;;
5923;SDS011;2987;50.884;14.818;2023-03-14T15:53:32;2.23;;;1.47;;
5923;SDS011;2987;50.884;14.818;2023-03-14T15:55:58;4.50;;;1.70;;
5923;SDS011;2987;50.884;14.818;2023-03-14T15:58:24;1.47;;;1.30;;
5923;SDS011;2987;50.884;14.818;2023-03-14T16:00:50;2.53;;;1.50;;
5923;SDS011;2987;50.884;14.818;2023-03-14T16:03:16;2.07;;;1.30;;
5923;SDS011;2987;50.884;14.818;2023-03-14T16:05:43;3.03;;;1.43;;
5923;SDS011;2987;50.884;14.818;2023-03-14T16:08:09;3.03;;;1.43;;
5923;SDS011;2987;50.884;14.818;2023-03-14T16:10:35;1.23;;;1.10;;
5923;SDS011;2987;50.884;14.818;2023-03-14T16:13:02;4.10;;;1.67;;
5923;SDS011;2987;50.884;14.818;2023-03-14T16:15:28;2.47;;;1.47;;
5923;SDS011;2987;50.884;14.818;2023-03-14T16:17:54;2.30;;;1.60;;
5923;SDS011;2987;50.884;14.818;2023-03-14T16:20:21;1.67;;;1.57;;
5923;SDS011;2987;50.884;14.818;2023-03-14T16:22:48;1.67;;;1.57;;
5923;SDS011;2987;50.884;14.818;2023-03-14T16:25:15;2.20;;;1.67;;
5923;SDS011;2987;50.884;14.818;2023-03-14T16:27:43;1.73;;;1.40;;
5923;SDS011;2987;50.884;14.818;2023-03-14T16:30:09;1.70;;;1.30;;
5923;SDS011;2987;50.884;14.818;2023-03-14T16:32:38;1.93;;;1.30;;
5923;SDS011;2987;50.884;14.818;2023-03-14T16:35:05;1.50;;;1.40;;
5923;SDS011;2987;50.884;14.818;2023-03-14T16:37:31;1.80;;;1.10;;